Terminal Aerodrome Forecast
Issued by NWS

Current Version | Previous Version | Text Only | Print | Product List | Glossary Off
Versions: 1 2 3 4 5 6 7 8 9 10 11 12 13 14 15 16 17 18 19

000
FTUS41 KILN 292303 AAC
TAFLUK
TAF AMD
KLUK 292303Z 2923/3018 02008KT P6SM VCTS SCT040CB BKN080
     FM300100 34006KT P6SM SCT120
     FM300600 34004KT P6SM SCT020
      TEMPO 3008/3012 3SM BR
     FM301300 30006KT P6SM FEW035=

USA.gov is the U.S. government's official web portal to all federal, state and local government web resources and services.